Terminal Aerodrome Forecast
Issued by NWS Des Moines, IA

Home | Current Version | Previous Version | Text Only | Print | Product List | Glossary On
Versions: 1 2 3 4 5 6 7 8 9 10 11 12 13 14 15 16 17 18 19 20 21 22 23 24 25 26 27
000
FTUS43 KDMX 192340
TAFALO
TAF
KALO 192340Z 2000/2024 14010KT P6SM SKC
     FM200900 15009KT P6SM BKN016
     FM201100 15010KT 4SM BR VCSH OVC009
     FM201300 15010G17KT 1SM -RA BR VCTS OVC005CB
     FM201800 17012G19KT 3SM -SHRA SCT005 OVC010
     FM202200 20010G18KT P6SM VCSH SCT009 OVC080=

USA.gov is the U.S. government's official web portal to all federal, state and local government web resources and services.